createdAt,value
2024-01-12T08:56:57.374Z,34.63
2024-01-12T08:59:25.017Z,35.83
2024-01-12T09:01:52.597Z,33.92
2024-01-12T09:04:20.242Z,33.00
2024-01-12T09:06:47.988Z,32.70
2024-01-12T09:09:15.586Z,34.05
2024-01-12T09:11:43.216Z,35.00
2024-01-12T09:14:10.889Z,32.88
2024-01-12T09:16:38.696Z,34.05
2024-01-12T09:19:06.364Z,34.42
2024-01-12T09:21:33.988Z,34.88
2024-01-12T09:24:02.017Z,34.38
2024-01-12T09:26:29.878Z,34.72
2024-01-12T09:28:57.407Z,34.65
2024-01-12T09:31:25.241Z,34.17
2024-01-12T09:33:54.422Z,34.65
2024-01-12T09:36:22.108Z,32.90
2024-01-12T09:38:49.706Z,35.38
2024-01-12T09:41:49.099Z,34.78
2024-01-12T09:44:22.072Z,32.05
2024-01-12T09:47:00.325Z,34.38
2024-01-12T09:49:32.685Z,34.45
2024-01-12T09:52:05.377Z,33.80
2024-01-12T09:54:32.860Z,32.72
2024-01-12T09:57:00.817Z,34.70
2024-01-12T09:59:29.158Z,36.13
2024-01-12T10:01:59.810Z,34.63
2024-01-12T10:04:28.323Z,34.13
2024-01-12T10:06:56.517Z,33.88
2024-01-12T10:09:26.566Z,32.72
2024-01-12T10:12:01.087Z,34.10
2024-01-12T10:14:28.839Z,32.42
2024-01-12T10:17:02.208Z,34.58
2024-01-12T10:19:30.590Z,35.20
2024-01-12T10:21:58.429Z,33.10
2024-01-12T10:24:26.003Z,32.60
2024-01-12T10:26:54.236Z,32.33
2024-01-12T10:29:22.154Z,32.67
2024-01-12T10:31:49.945Z,35.65
2024-01-12T10:34:18.215Z,33.67
2024-01-12T10:36:55.124Z,33.88
2024-01-12T10:39:24.120Z,33.88
2024-01-12T10:41:53.450Z,30.83
2024-01-12T10:44:27.501Z,34.10
2024-01-12T10:47:04.357Z,33.55
2024-01-12T10:49:52.298Z,32.83
2024-01-12T10:52:56.009Z,31.25
2024-01-12T10:55:27.834Z,33.58
2024-01-12T10:57:56.076Z,33.15
2024-01-12T11:00:23.673Z,31.77
2024-01-12T11:02:51.664Z,32.97
2024-01-12T11:05:22.331Z,32.55
2024-01-12T11:07:51.090Z,31.92
2024-01-12T11:10:21.155Z,31.67
2024-01-12T11:12:52.019Z,32.70
2024-01-12T11:15:20.764Z,31.25
2024-01-12T11:17:48.568Z,31.17
2024-01-12T11:20:22.288Z,32.58
2024-01-12T11:22:51.299Z,31.05
2024-01-12T11:25:21.770Z,33.10
2024-01-12T11:30:24.149Z,31.27
2024-01-12T11:33:08.336Z,33.08
2024-01-12T11:35:38.643Z,33.05
2024-01-12T11:38:11.647Z,31.33
2024-01-12T11:40:39.730Z,32.15
2024-01-12T11:43:07.785Z,32.88
2024-01-12T11:45:35.670Z,31.55
2024-01-12T11:48:05.325Z,33.83
2024-01-12T11:50:33.336Z,34.05
2024-01-12T11:53:02.632Z,32.95
2024-01-12T11:55:31.804Z,34.38
2024-01-12T11:57:59.435Z,34.40
2024-01-12T12:00:27.295Z,34.90
2024-01-12T12:02:58.088Z,33.88
2024-01-12T12:05:27.335Z,33.95
2024-01-12T12:07:55.245Z,35.17
2024-01-12T12:10:32.883Z,35.35
2024-01-12T12:13:11.006Z,35.30
2024-01-12T12:15:38.511Z,34.55
2024-01-12T12:18:07.903Z,35.33
2024-01-12T12:20:35.942Z,35.53
2024-01-12T12:23:03.754Z,35.92
2024-01-12T12:25:31.364Z,36.13
2024-01-12T12:27:58.933Z,35.67
2024-01-12T12:30:31.190Z,36.38
2024-01-12T12:33:01.062Z,36.50
2024-01-12T12:35:29.010Z,35.22
2024-01-12T12:38:03.079Z,36.08
2024-01-12T12:40:32.945Z,35.65
2024-01-12T12:43:01.156Z,34.75
2024-01-12T12:45:28.892Z,36.20
2024-01-12T12:47:58.559Z,35.90
2024-01-12T12:50:26.905Z,37.67
2024-01-12T12:52:54.511Z,37.55
2024-01-12T12:55:22.067Z,38.03
2024-01-12T12:57:51.756Z,37.55
2024-01-12T13:00:19.922Z,36.20
2024-01-12T13:02:47.436Z,36.92
2024-01-12T13:05:17.301Z,38.60
2024-01-12T13:07:44.874Z,36.35
2024-01-12T13:10:12.361Z,37.33
2024-01-12T13:12:40.627Z,39.45
2024-01-12T13:15:10.326Z,37.83
2024-01-12T13:17:38.007Z,35.80
2024-01-12T13:20:06.644Z,39.05
2024-01-12T13:22:34.246Z,37.25
2024-01-12T13:25:01.764Z,37.17
2024-01-12T13:27:29.385Z,36.58
2024-01-12T13:29:56.879Z,37.28
2024-01-12T13:32:24.974Z,38.72
2024-01-12T13:34:52.742Z,37.28
2024-01-12T13:37:20.470Z,38.58
2024-01-12T13:39:47.960Z,36.35
2024-01-12T13:42:15.742Z,38.17
2024-01-12T13:44:43.754Z,38.13
2024-01-12T13:47:11.382Z,35.10
2024-01-12T13:49:38.971Z,37.42
2024-01-12T13:52:06.787Z,40.33
2024-01-12T13:54:34.283Z,36.20
2024-01-12T13:57:01.875Z,38.22
2024-01-12T13:59:29.437Z,37.40
2024-01-12T14:01:57.614Z,36.35
2024-01-12T14:04:25.428Z,39.60
2024-01-12T14:06:53.975Z,36.30
2024-01-12T14:09:21.649Z,36.20
2024-01-12T14:11:49.434Z,37.38
2024-01-12T14:14:16.997Z,36.72
2024-01-12T14:16:44.544Z,37.92
2024-01-12T14:19:13.036Z,36.00
2024-01-12T14:21:40.659Z,37.35
2024-01-12T14:24:12.594Z,37.00
2024-01-12T14:26:40.929Z,37.55
2024-01-12T14:29:09.685Z,37.05
2024-01-12T14:31:37.562Z,35.97
2024-01-12T14:34:05.756Z,36.70
2024-01-12T14:36:33.889Z,35.42
2024-01-12T14:39:01.421Z,34.70
2024-01-12T14:41:29.364Z,39.33
2024-01-12T14:43:57.384Z,35.55
2024-01-12T14:46:25.078Z,34.60
2024-01-12T14:48:52.970Z,36.95
2024-01-12T14:51:20.669Z,37.17
2024-01-12T14:53:49.238Z,35.13
2024-01-12T14:56:17.617Z,36.47
2024-01-12T14:58:45.254Z,34.25
2024-01-12T15:01:12.820Z,33.28
2024-01-12T15:03:41.705Z,35.20
2024-01-12T15:06:09.486Z,35.92
2024-01-12T15:08:39.670Z,35.88
2024-01-12T15:11:07.381Z,38.75
2024-01-12T15:13:35.190Z,35.38
2024-01-12T15:16:02.963Z,34.10
2024-01-12T15:18:30.714Z,36.80
2024-01-12T15:20:58.677Z,36.03
2024-01-12T15:23:27.462Z,34.53
2024-01-12T15:25:58.042Z,32.33
2024-01-12T15:30:53.364Z,35.55
2024-01-12T15:33:21.455Z,32.38
2024-01-12T15:35:49.298Z,35.17
2024-01-12T15:38:16.863Z,34.75
2024-01-12T15:40:44.450Z,36.15
2024-01-12T15:43:11.907Z,34.72
2024-01-12T15:45:40.346Z,35.35
2024-01-12T15:48:09.245Z,35.72
2024-01-12T15:50:37.025Z,33.90
2024-01-12T15:53:05.669Z,35.30
2024-01-12T15:55:33.170Z,34.70
2024-01-12T15:58:00.650Z,36.97
2024-01-12T16:00:28.410Z,36.25
2024-01-12T16:02:55.955Z,35.05
2024-01-12T16:05:24.420Z,35.67
2024-01-12T16:07:54.963Z,37.40
2024-01-12T16:10:22.489Z,35.85
2024-01-12T16:12:50.134Z,37.13
2024-01-12T16:15:18.084Z,36.58
2024-01-12T16:17:45.894Z,37.15
2024-01-12T16:20:13.707Z,37.80
2024-01-12T16:22:41.456Z,38.63
2024-01-12T16:25:10.057Z,36.92
2024-01-12T16:27:37.732Z,39.05
2024-01-12T16:30:06.923Z,37.85
2024-01-12T16:32:35.598Z,37.25
2024-01-12T16:35:03.523Z,36.03
2024-01-12T16:37:31.071Z,39.05
2024-01-12T16:39:58.589Z,34.20
2024-01-12T16:42:26.488Z,38.03
2024-01-12T16:44:56.659Z,34.58
2024-01-12T16:47:25.560Z,35.47
2024-01-12T16:49:53.236Z,37.45
2024-01-12T16:52:20.827Z,37.00
2024-01-12T16:54:48.595Z,36.05
2024-01-12T16:57:16.221Z,35.78
2024-01-12T16:59:43.813Z,35.22
2024-01-12T17:02:12.293Z,37.50
2024-01-12T17:04:39.834Z,36.40
2024-01-12T17:07:07.499Z,35.20
2024-01-12T17:09:35.005Z,34.28
2024-01-12T17:12:02.560Z,37.38
2024-01-12T17:14:30.237Z,37.30
2024-01-12T17:16:57.722Z,34.83
2024-01-12T17:19:26.120Z,38.42
2024-01-12T17:21:56.067Z,37.55
2024-01-12T17:24:23.597Z,33.58
2024-01-12T17:26:51.092Z,35.25
2024-01-12T17:29:20.059Z,36.30
2024-01-12T17:31:50.121Z,36.40
2024-01-12T17:34:18.739Z,38.97
2024-01-12T17:36:49.877Z,38.45
2024-01-12T17:39:18.254Z,37.22
2024-01-12T17:41:46.758Z,37.50
2024-01-12T17:44:14.518Z,40.25
2024-01-12T17:46:42.042Z,37.45
2024-01-12T17:49:09.750Z,39.13
2024-01-12T17:51:40.673Z,39.58
2024-01-12T17:54:08.281Z,38.20
2024-01-12T17:56:38.682Z,38.33
2024-01-12T17:59:06.463Z,37.22
2024-01-12T18:01:33.988Z,37.60
2024-01-12T18:04:01.587Z,39.50
2024-01-12T18:06:29.209Z,39.13
2024-01-12T18:08:58.153Z,40.47
2024-01-12T18:11:25.780Z,39.38
2024-01-12T18:13:53.285Z,38.40
2024-01-12T18:16:20.774Z,41.35
2024-01-12T18:18:48.437Z,40.00
2024-01-12T18:21:16.042Z,40.92
2024-01-12T18:23:43.639Z,41.42
2024-01-12T18:26:11.202Z,40.92
2024-01-12T18:28:38.781Z,41.20
2024-01-12T18:31:06.293Z,41.13
2024-01-12T18:33:34.026Z,41.20
2024-01-12T18:36:01.778Z,42.40
2024-01-12T18:38:29.414Z,43.47
2024-01-12T18:40:56.935Z,41.03
2024-01-12T18:43:24.403Z,42.53
